sensor_id;sensor_type;location;lat;lon;timestamp;temperature;humidity
27667;DHT22;15074;50.940;5.282;2022-09-28T00:00:49;9.20;99.90
27667;DHT22;15074;50.940;5.282;2022-09-28T00:03:15;9.20;99.90
27667;DHT22;15074;50.940;5.282;2022-09-28T00:05:40;9.10;99.90
27667;DHT22;15074;50.940;5.282;2022-09-28T00:08:06;9.10;99.90
27667;DHT22;15074;50.940;5.282;2022-09-28T00:10:32;9.20;99.90
27667;DHT22;15074;50.940;5.282;2022-09-28T00:12:58;9.10;99.90
27667;DHT22;15074;50.940;5.282;2022-09-28T00:15:25;9.10;99.90
27667;DHT22;15074;50.940;5.282;2022-09-28T00:17:50;9.10;99.90
27667;DHT22;15074;50.940;5.282;2022-09-28T00:20:16;9.20;99.90
27667;DHT22;15074;50.940;5.282;2022-09-28T00:22:42;9.20;99.90
27667;DHT22;15074;50.940;5.282;2022-09-28T00:25:08;9.20;99.90
27667;DHT22;15074;50.940;5.282;2022-09-28T00:27:33;9.10;99.90
27667;DHT22;15074;50.940;5.282;2022-09-28T00:29:59;9.20;99.90
27667;DHT22;15074;50.940;5.282;2022-09-28T00:32:25;9.30;99.90
27667;DHT22;15074;50.940;5.282;2022-09-28T00:34:51;9.20;99.90
27667;DHT22;15074;50.940;5.282;2022-09-28T00:37:18;9.20;99.90
27667;DHT22;15074;50.940;5.282;2022-09-28T00:39:44;9.20;99.90
27667;DHT22;15074;50.940;5.282;2022-09-28T00:42:13;9.20;99.90
27667;DHT22;15074;50.940;5.282;2022-09-28T00:44:54;9.10;99.90
27667;DHT22;15074;50.940;5.282;2022-09-28T00:50:32;9.10;99.90
27667;DHT22;15074;50.940;5.282;2022-09-28T00:53:13;9.00;99.90
27667;DHT22;15074;50.940;5.282;2022-09-28T00:55:50;9.00;99.90
27667;DHT22;15074;50.940;5.282;2022-09-28T00:58:28;9.00;99.90
27667;DHT22;15074;50.940;5.282;2022-09-28T01:00:56;9.00;99.90
27667;DHT22;15074;50.940;5.282;2022-09-28T01:03:23;9.10;99.90
27667;DHT22;15074;50.940;5.282;2022-09-28T01:05:50;9.10;99.90
27667;DHT22;15074;50.940;5.282;2022-09-28T01:08:18;9.20;99.90
27667;DHT22;15074;50.940;5.282;2022-09-28T01:10:46;9.20;99.90
27667;DHT22;15074;50.940;5.282;2022-09-28T01:13:12;9.10;99.90
27667;DHT22;15074;50.940;5.282;2022-09-28T01:16:36;9.10;99.90
27667;DHT22;15074;50.940;5.282;2022-09-28T01:18:55;9.10;99.90
27667;DHT22;15074;50.940;5.282;2022-09-28T01:21:23;9.10;99.90
27667;DHT22;15074;50.940;5.282;2022-09-28T01:27:00;8.90;99.90
27667;DHT22;15074;50.940;5.282;2022-09-28T01:34:54;8.90;99.90
27667;DHT22;15074;50.940;5.282;2022-09-28T01:37:35;8.90;99.90
27667;DHT22;15074;50.940;5.282;2022-09-28T01:40:04;8.80;99.90
27667;DHT22;15074;50.940;5.282;2022-09-28T01:42:32;8.70;99.90
27667;DHT22;15074;50.940;5.282;2022-09-28T01:45:05;8.70;99.90
27667;DHT22;15074;50.940;5.282;2022-09-28T01:47:34;8.70;99.90
27667;DHT22;15074;50.940;5.282;2022-09-28T01:50:14;8.60;99.90
27667;DHT22;15074;50.940;5.282;2022-09-28T01:52:52;8.70;99.90
27667;DHT22;15074;50.940;5.282;2022-09-28T01:55:27;8.70;99.90
27667;DHT22;15074;50.940;5.282;2022-09-28T01:58:04;8.60;99.90
27667;DHT22;15074;50.940;5.282;2022-09-28T02:00:33;8.60;99.90
27667;DHT22;15074;50.940;5.282;2022-09-28T02:06:07;8.60;99.90
27667;DHT22;15074;50.940;5.282;2022-09-28T02:08:39;8.60;99.90
27667;DHT22;15074;50.940;5.282;2022-09-28T02:11:14;8.60;99.90
27667;DHT22;15074;50.940;5.282;2022-09-28T02:13:48;8.60;99.90
27667;DHT22;15074;50.940;5.282;2022-09-28T02:17:00;8.50;99.90
27667;DHT22;15074;50.940;5.282;2022-09-28T02:19:16;8.50;99.90
27667;DHT22;15074;50.940;5.282;2022-09-28T02:24:46;8.40;99.90
27667;DHT22;15074;50.940;5.282;2022-09-28T02:29:48;8.40;99.90
27667;DHT22;15074;50.940;5.282;2022-09-28T02:32:15;8.50;99.90
27667;DHT22;15074;50.940;5.282;2022-09-28T02:34:41;8.40;99.90
27667;DHT22;15074;50.940;5.282;2022-09-28T02:37:07;8.40;99.90
27667;DHT22;15074;50.940;5.282;2022-09-28T02:39:33;8.40;99.90
27667;DHT22;15074;50.940;5.282;2022-09-28T02:42:06;8.50;99.90
27667;DHT22;15074;50.940;5.282;2022-09-28T02:48:04;8.60;99.90
27667;DHT22;15074;50.940;5.282;2022-09-28T02:53:11;8.60;99.90
27667;DHT22;15074;50.940;5.282;2022-09-28T02:55:54;8.60;99.90
27667;DHT22;15074;50.940;5.282;2022-09-28T03:01:18;8.70;99.90
27667;DHT22;15074;50.940;5.282;2022-09-28T03:03:51;8.70;99.90
27667;DHT22;15074;50.940;5.282;2022-09-28T03:06:25;8.70;99.90
27667;DHT22;15074;50.940;5.282;2022-09-28T03:09:02;8.80;99.90
27667;DHT22;15074;50.940;5.282;2022-09-28T03:11:55;8.70;99.90
27667;DHT22;15074;50.940;5.282;2022-09-28T03:14:23;8.80;99.90
27667;DHT22;15074;50.940;5.282;2022-09-28T03:16:49;8.80;99.90
27667;DHT22;15074;50.940;5.282;2022-09-28T03:19:16;8.80;99.90
27667;DHT22;15074;50.940;5.282;2022-09-28T03:21:43;8.70;99.90
27667;DHT22;15074;50.940;5.282;2022-09-28T03:24:09;8.70;99.90
27667;DHT22;15074;50.940;5.282;2022-09-28T03:26:39;8.60;99.90
27667;DHT22;15074;50.940;5.282;2022-09-28T03:29:05;8.60;99.90
27667;DHT22;15074;50.940;5.282;2022-09-28T03:31:30;8.50;99.90
27667;DHT22;15074;50.940;5.282;2022-09-28T03:33:56;8.50;99.90
27667;DHT22;15074;50.940;5.282;2022-09-28T03:36:22;8.50;99.90
27667;DHT22;15074;50.940;5.282;2022-09-28T03:38:47;8.40;99.90
27667;DHT22;15074;50.940;5.282;2022-09-28T03:41:15;8.40;99.90
27667;DHT22;15074;50.940;5.282;2022-09-28T03:43:41;8.40;99.90
27667;DHT22;15074;50.940;5.282;2022-09-28T03:46:07;8.30;99.90
27667;DHT22;15074;50.940;5.282;2022-09-28T03:48:34;8.20;99.90
27667;DHT22;15074;50.940;5.282;2022-09-28T03:51:03;8.20;99.90
27667;DHT22;15074;50.940;5.282;2022-09-28T03:53:29;8.20;99.90
27667;DHT22;15074;50.940;5.282;2022-09-28T03:56:00;8.20;99.90
27667;DHT22;15074;50.940;5.282;2022-09-28T03:58:27;8.20;99.90
27667;DHT22;15074;50.940;5.282;2022-09-28T04:00:52;8.20;99.90
27667;DHT22;15074;50.940;5.282;2022-09-28T04:03:18;8.30;99.90
27667;DHT22;15074;50.940;5.282;2022-09-28T04:05:51;8.30;99.90
27667;DHT22;15074;50.940;5.282;2022-09-28T04:08:17;8.30;99.90
27667;DHT22;15074;50.940;5.282;2022-09-28T04:10:43;8.30;99.90
27667;DHT22;15074;50.940;5.282;2022-09-28T04:13:09;8.30;99.90
27667;DHT22;15074;50.940;5.282;2022-09-28T04:15:34;8.40;99.90
27667;DHT22;15074;50.940;5.282;2022-09-28T04:18:02;8.40;99.90
27667;DHT22;15074;50.940;5.282;2022-09-28T04:20:28;8.40;99.90
27667;DHT22;15074;50.940;5.282;2022-09-28T04:22:54;8.40;99.90
27667;DHT22;15074;50.940;5.282;2022-09-28T04:25:19;8.50;99.90
27667;DHT22;15074;50.940;5.282;2022-09-28T04:27:45;8.50;99.90
27667;DHT22;15074;50.940;5.282;2022-09-28T04:30:29;8.50;99.90
27667;DHT22;15074;50.940;5.282;2022-09-28T04:32:55;8.40;99.90
27667;DHT22;15074;50.940;5.282;2022-09-28T04:35:21;8.40;99.90
27667;DHT22;15074;50.940;5.282;2022-09-28T04:37:46;8.40;99.90
27667;DHT22;15074;50.940;5.282;2022-09-28T04:40:12;8.40;99.90
27667;DHT22;15074;50.940;5.282;2022-09-28T04:42:37;8.20;99.90
27667;DHT22;15074;50.940;5.282;2022-09-28T04:45:03;8.30;99.90
27667;DHT22;15074;50.940;5.282;2022-09-28T04:47:29;8.20;99.90
27667;DHT22;15074;50.940;5.282;2022-09-28T04:49:55;8.10;99.90
27667;DHT22;15074;50.940;5.282;2022-09-28T04:52:20;8.00;99.90
27667;DHT22;15074;50.940;5.282;2022-09-28T04:54:46;7.90;99.90
27667;DHT22;15074;50.940;5.282;2022-09-28T04:57:11;7.80;99.90
27667;DHT22;15074;50.940;5.282;2022-09-28T04:59:37;7.70;99.90
27667;DHT22;15074;50.940;5.282;2022-09-28T05:02:03;7.70;99.90
27667;DHT22;15074;50.940;5.282;2022-09-28T05:04:29;7.70;99.90
27667;DHT22;15074;50.940;5.282;2022-09-28T05:06:56;7.80;99.90
27667;DHT22;15074;50.940;5.282;2022-09-28T05:09:21;7.70;99.90
27667;DHT22;15074;50.940;5.282;2022-09-28T05:11:50;7.70;99.90
27667;DHT22;15074;50.940;5.282;2022-09-28T05:14:18;7.50;99.90
27667;DHT22;15074;50.940;5.282;2022-09-28T05:16:44;7.50;99.90
27667;DHT22;15074;50.940;5.282;2022-09-28T05:19:10;7.60;99.90
27667;DHT22;15074;50.940;5.282;2022-09-28T05:21:36;7.40;99.90
27667;DHT22;15074;50.940;5.282;2022-09-28T05:24:02;7.50;99.90
27667;DHT22;15074;50.940;5.282;2022-09-28T05:26:32;7.40;99.90
27667;DHT22;15074;50.940;5.282;2022-09-28T05:28:57;7.40;99.90
27667;DHT22;15074;50.940;5.282;2022-09-28T05:31:23;7.30;99.90
27667;DHT22;15074;50.940;5.282;2022-09-28T05:33:48;7.20;99.90
27667;DHT22;15074;50.940;5.282;2022-09-28T05:36:15;7.10;99.90
27667;DHT22;15074;50.940;5.282;2022-09-28T05:38:41;7.00;99.90
27667;DHT22;15074;50.940;5.282;2022-09-28T05:41:06;7.00;99.90
27667;DHT22;15074;50.940;5.282;2022-09-28T05:43:32;7.00;99.90
27667;DHT22;15074;50.940;5.282;2022-09-28T05:45:58;7.10;99.90
27667;DHT22;15074;50.940;5.282;2022-09-28T05:48:24;7.30;99.90
27667;DHT22;15074;50.940;5.282;2022-09-28T05:50:51;7.30;99.90
27667;DHT22;15074;50.940;5.282;2022-09-28T05:53:16;7.30;99.90
27667;DHT22;15074;50.940;5.282;2022-09-28T05:55:42;7.30;99.90
27667;DHT22;15074;50.940;5.282;2022-09-28T05:58:08;7.30;99.90
27667;DHT22;15074;50.940;5.282;2022-09-28T06:00:34;7.30;99.90
27667;DHT22;15074;50.940;5.282;2022-09-28T06:03:05;7.40;99.90
27667;DHT22;15074;50.940;5.282;2022-09-28T06:05:33;7.50;99.90
27667;DHT22;15074;50.940;5.282;2022-09-28T06:07:59;7.50;99.90
27667;DHT22;15074;50.940;5.282;2022-09-28T06:10:26;7.60;99.90
27667;DHT22;15074;50.940;5.282;2022-09-28T06:12:56;7.70;99.90
27667;DHT22;15074;50.940;5.282;2022-09-28T06:15:24;7.90;99.90
27667;DHT22;15074;50.940;5.282;2022-09-28T06:18:01;8.50;99.90
27667;DHT22;15074;50.940;5.282;2022-09-28T06:20:30;9.60;99.90
27667;DHT22;15074;50.940;5.282;2022-09-28T06:22:57;10.20;99.90
27667;DHT22;15074;50.940;5.282;2022-09-28T06:25:23;10.50;99.90
27667;DHT22;15074;50.940;5.282;2022-09-28T06:27:59;10.70;99.90
27667;DHT22;15074;50.940;5.282;2022-09-28T06:30:26;11.40;99.90
27667;DHT22;15074;50.940;5.282;2022-09-28T06:32:56;12.10;99.90
27667;DHT22;15074;50.940;5.282;2022-09-28T06:35:23;12.20;99.90
27667;DHT22;15074;50.940;5.282;2022-09-28T06:37:50;12.90;99.90
27667;DHT22;15074;50.940;5.282;2022-09-28T06:40:17;12.90;99.90
27667;DHT22;15074;50.940;5.282;2022-09-28T06:42:42;13.50;99.90
27667;DHT22;15074;50.940;5.282;2022-09-28T06:45:08;13.70;99.90
27667;DHT22;15074;50.940;5.282;2022-09-28T06:47:36;13.90;99.90
27667;DHT22;15074;50.940;5.282;2022-09-28T06:50:03;14.00;99.90
27667;DHT22;15074;50.940;5.282;2022-09-28T06:52:30;14.50;99.90
27667;DHT22;15074;50.940;5.282;2022-09-28T06:54:56;14.80;99.90
27667;DHT22;15074;50.940;5.282;2022-09-28T06:57:21;15.20;99.90
27667;DHT22;15074;50.940;5.282;2022-09-28T06:59:47;15.70;99.90
27667;DHT22;15074;50.940;5.282;2022-09-28T07:02:12;16.20;99.90
27667;DHT22;15074;50.940;5.282;2022-09-28T07:04:42;15.90;99.90
27667;DHT22;15074;50.940;5.282;2022-09-28T07:07:10;15.20;99.90
27667;DHT22;15074;50.940;5.282;2022-09-28T07:09:36;15.00;99.90
27667;DHT22;15074;50.940;5.282;2022-09-28T07:12:02;15.60;99.90
27667;DHT22;15074;50.940;5.282;2022-09-28T07:14:34;15.40;99.90
27667;DHT22;15074;50.940;5.282;2022-09-28T07:17:00;16.40;99.90
27667;DHT22;15074;50.940;5.282;2022-09-28T07:19:26;17.20;99.90
27667;DHT22;15074;50.940;5.282;2022-09-28T07:21:52;17.40;99.90
27667;DHT22;15074;50.940;5.282;2022-09-28T07:24:18;17.50;99.90
27667;DHT22;15074;50.940;5.282;2022-09-28T07:26:44;17.70;99.90
27667;DHT22;15074;50.940;5.282;2022-09-28T07:29:10;17.80;99.90
27667;DHT22;15074;50.940;5.282;2022-09-28T07:31:37;17.10;99.90
27667;DHT22;15074;50.940;5.282;2022-09-28T07:34:03;17.30;99.90
27667;DHT22;15074;50.940;5.282;2022-09-28T07:36:29;17.50;99.90
27667;DHT22;15074;50.940;5.282;2022-09-28T07:38:55;18.10;99.90
27667;DHT22;15074;50.940;5.282;2022-09-28T07:41:21;18.50;99.90
27667;DHT22;15074;50.940;5.282;2022-09-28T07:44:00;19.20;99.90
27667;DHT22;15074;50.940;5.282;2022-09-28T07:46:34;19.60;99.90
27667;DHT22;15074;50.940;5.282;2022-09-28T07:48:59;19.00;99.90
27667;DHT22;15074;50.940;5.282;2022-09-28T07:51:25;18.80;99.90
27667;DHT22;15074;50.940;5.282;2022-09-28T07:53:51;19.10;99.90
27667;DHT22;15074;50.940;5.282;2022-09-28T07:56:19;20.00;99.90
27667;DHT22;15074;50.940;5.282;2022-09-28T07:58:46;20.30;99.90
27667;DHT22;15074;50.940;5.282;2022-09-28T08:01:12;20.70;99.90
27667;DHT22;15074;50.940;5.282;2022-09-28T08:03:41;20.50;99.90
27667;DHT22;15074;50.940;5.282;2022-09-28T08:06:13;20.80;99.90
27667;DHT22;15074;50.940;5.282;2022-09-28T08:08:39;19.90;99.90
27667;DHT22;15074;50.940;5.282;2022-09-28T08:11:10;19.20;99.90
27667;DHT22;15074;50.940;5.282;2022-09-28T08:13:36;19.30;99.90
27667;DHT22;15074;50.940;5.282;2022-09-28T08:16:03;19.30;99.90
27667;DHT22;15074;50.940;5.282;2022-09-28T08:18:30;18.80;99.90
27667;DHT22;15074;50.940;5.282;2022-09-28T08:20:56;18.50;99.90
27667;DHT22;15074;50.940;5.282;2022-09-28T08:23:40;18.80;99.90
27667;DHT22;15074;50.940;5.282;2022-09-28T08:26:06;19.30;99.90
27667;DHT22;15074;50.940;5.282;2022-09-28T08:28:33;20.40;99.90
27667;DHT22;15074;50.940;5.282;2022-09-28T08:31:00;21.00;99.90
27667;DHT22;15074;50.940;5.282;2022-09-28T08:33:32;21.80;99.90
27667;DHT22;15074;50.940;5.282;2022-09-28T08:35:59;22.00;99.90
27667;DHT22;15074;50.940;5.282;2022-09-28T08:38:27;22.30;99.90
27667;DHT22;15074;50.940;5.282;2022-09-28T08:46:05;19.30;99.90
27667;DHT22;15074;50.940;5.282;2022-09-28T08:48:37;20.70;99.90
27667;DHT22;15074;50.940;5.282;2022-09-28T08:51:22;21.00;99.90
27667;DHT22;15074;50.940;5.282;2022-09-28T08:56:28;21.70;99.90
27667;DHT22;15074;50.940;5.282;2022-09-28T08:58:59;22.70;99.90
27667;DHT22;15074;50.940;5.282;2022-09-28T09:01:32;23.40;99.90
27667;DHT22;15074;50.940;5.282;2022-09-28T09:03:59;22.50;99.90
27667;DHT22;15074;50.940;5.282;2022-09-28T09:12:17;19.90;99.90
27667;DHT22;15074;50.940;5.282;2022-09-28T09:20:58;18.10;99.90
27667;DHT22;15074;50.940;5.282;2022-09-28T09:26:18;20.10;99.90
27667;DHT22;15074;50.940;5.282;2022-09-28T09:31:51;20.80;99.90
27667;DHT22;15074;50.940;5.282;2022-09-28T09:34:31;21.10;99.90
27667;DHT22;15074;50.940;5.282;2022-09-28T09:48:37;22.40;99.90
27667;DHT22;15074;50.940;5.282;2022-09-28T09:51:16;22.00;99.90
27667;DHT22;15074;50.940;5.282;2022-09-28T09:53:59;22.40;99.90
27667;DHT22;15074;50.940;5.282;2022-09-28T09:56:46;22.30;99.90
27667;DHT22;15074;50.940;5.282;2022-09-28T09:59:18;22.90;99.90
27667;DHT22;15074;50.940;5.282;2022-09-28T10:01:44;23.20;99.90
27667;DHT22;15074;50.940;5.282;2022-09-28T10:04:19;23.30;99.90
27667;DHT22;15074;50.940;5.282;2022-09-28T10:06:47;23.20;99.90
27667;DHT22;15074;50.940;5.282;2022-09-28T10:09:26;23.10;99.90
27667;DHT22;15074;50.940;5.282;2022-09-28T10:11:54;21.90;99.90
27667;DHT22;15074;50.940;5.282;2022-09-28T10:14:22;22.50;99.90
27667;DHT22;15074;50.940;5.282;2022-09-28T10:16:50;22.80;99.90
27667;DHT22;15074;50.940;5.282;2022-09-28T10:19:19;22.00;99.90
27667;DHT22;15074;50.940;5.282;2022-09-28T10:21:49;21.40;99.90
27667;DHT22;15074;50.940;5.282;2022-09-28T10:24:39;20.70;99.90
27667;DHT22;15074;50.940;5.282;2022-09-28T10:32:23;19.50;99.90
27667;DHT22;15074;50.940;5.282;2022-09-28T10:34:50;18.90;99.90
27667;DHT22;15074;50.940;5.282;2022-09-28T10:37:17;18.80;99.90
27667;DHT22;15074;50.940;5.282;2022-09-28T10:39:52;18.90;99.90
27667;DHT22;15074;50.940;5.282;2022-09-28T10:42:26;19.80;99.90
27667;DHT22;15074;50.940;5.282;2022-09-28T10:44:54;19.40;99.90
27667;DHT22;15074;50.940;5.282;2022-09-28T10:47:23;18.90;99.90
27667;DHT22;15074;50.940;5.282;2022-09-28T10:49:51;18.30;99.90
27667;DHT22;15074;50.940;5.282;2022-09-28T10:52:40;17.40;99.90
27667;DHT22;15074;50.940;5.282;2022-09-28T10:55:26;17.10;99.90
27667;DHT22;15074;50.940;5.282;2022-09-28T10:57:52;17.60;99.90
27667;DHT22;15074;50.940;5.282;2022-09-28T11:00:43;18.30;99.90
27667;DHT22;15074;50.940;5.282;2022-09-28T11:03:27;19.90;99.90
27667;DHT22;15074;50.940;5.282;2022-09-28T11:06:28;20.90;99.90
27667;DHT22;15074;50.940;5.282;2022-09-28T11:08:48;20.90;99.90
27667;DHT22;15074;50.940;5.282;2022-09-28T11:11:15;22.10;99.90
27667;DHT22;15074;50.940;5.282;2022-09-28T11:13:52;22.50;99.90
27667;DHT22;15074;50.940;5.282;2022-09-28T11:16:24;22.40;99.90
27667;DHT22;15074;50.940;5.282;2022-09-28T11:18:50;21.10;99.90
27667;DHT22;15074;50.940;5.282;2022-09-28T11:21:20;19.80;99.90
27667;DHT22;15074;50.940;5.282;2022-09-28T11:26:26;18.20;99.90
27667;DHT22;15074;50.940;5.282;2022-09-28T11:28:58;17.60;99.90
27667;DHT22;15074;50.940;5.282;2022-09-28T11:31:26;17.50;99.90
27667;DHT22;15074;50.940;5.282;2022-09-28T11:34:21;17.40;99.90
27667;DHT22;15074;50.940;5.282;2022-09-28T11:37:24;17.20;99.90
27667;DHT22;15074;50.940;5.282;2022-09-28T11:39:52;17.00;99.90
27667;DHT22;15074;50.940;5.282;2022-09-28T11:42:35;17.10;99.90
27667;DHT22;15074;50.940;5.282;2022-09-28T11:48:09;16.80;99.90
27667;DHT22;15074;50.940;5.282;2022-09-28T11:58:49;16.20;99.90
27667;DHT22;15074;50.940;5.282;2022-09-28T12:06:58;16.70;99.90
27667;DHT22;15074;50.940;5.282;2022-09-28T12:09:44;17.20;99.90
27667;DHT22;15074;50.940;5.282;2022-09-28T12:12:38;17.20;99.90
27667;DHT22;15074;50.940;5.282;2022-09-28T12:17:44;17.20;99.90
27667;DHT22;15074;50.940;5.282;2022-09-28T12:20:26;17.30;99.90
27667;DHT22;15074;50.940;5.282;2022-09-28T12:25:25;17.70;99.90
27667;DHT22;15074;50.940;5.282;2022-09-28T12:27:53;17.80;99.90
27667;DHT22;15074;50.940;5.282;2022-09-28T12:30:22;17.80;99.90
27667;DHT22;15074;50.940;5.282;2022-09-28T12:33:08;17.70;99.90
27667;DHT22;15074;50.940;5.282;2022-09-28T12:36:15;17.60;99.90
27667;DHT22;15074;50.940;5.282;2022-09-28T12:41:34;17.10;99.90
27667;DHT22;15074;50.940;5.282;2022-09-28T12:49:32;15.70;99.90
27667;DHT22;15074;50.940;5.282;2022-09-28T12:52:26;15.20;99.90
27667;DHT22;15074;50.940;5.282;2022-09-28T12:55:08;15.00;99.90
27667;DHT22;15074;50.940;5.282;2022-09-28T12:57:55;14.90;99.90
27667;DHT22;15074;50.940;5.282;2022-09-28T13:00:24;14.90;99.90
27667;DHT22;15074;50.940;5.282;2022-09-28T13:23:20;14.80;99.90
27667;DHT22;15074;50.940;5.282;2022-09-28T13:25:57;15.00;99.90
27667;DHT22;15074;50.940;5.282;2022-09-28T13:28:24;15.30;99.90
27667;DHT22;15074;50.940;5.282;2022-09-28T13:30:51;15.50;99.90
27667;DHT22;15074;50.940;5.282;2022-09-28T13:33:31;15.80;99.90
27667;DHT22;15074;50.940;5.282;2022-09-28T13:36:00;16.00;99.90
27667;DHT22;15074;50.940;5.282;2022-09-28T13:38:30;16.50;99.90
27667;DHT22;15074;50.940;5.282;2022-09-28T13:43:59;17.60;99.90
27667;DHT22;15074;50.940;5.282;2022-09-28T13:46:45;18.10;99.90
27667;DHT22;15074;50.940;5.282;2022-09-28T13:51:57;19.50;99.90
27667;DHT22;15074;50.940;5.282;2022-09-28T14:02:35;15.30;99.90
27667;DHT22;15074;50.940;5.282;2022-09-28T14:05:52;14.70;99.90
27667;DHT22;15074;50.940;5.282;2022-09-28T14:07:56;14.30;99.90
27667;DHT22;15074;50.940;5.282;2022-09-28T14:10:52;14.00;99.90
27667;DHT22;15074;50.940;5.282;2022-09-28T14:18:45;13.40;99.90
27667;DHT22;15074;50.940;5.282;2022-09-28T14:29:36;13.30;99.90
27667;DHT22;15074;50.940;5.282;2022-09-28T14:34:42;13.30;99.90
27667;DHT22;15074;50.940;5.282;2022-09-28T14:37:27;13.30;99.90
27667;DHT22;15074;50.940;5.282;2022-09-28T14:40:25;13.20;99.90
27667;DHT22;15074;50.940;5.282;2022-09-28T14:48:54;13.40;99.90
27667;DHT22;15074;50.940;5.282;2022-09-28T14:53:53;13.80;99.90
27667;DHT22;15074;50.940;5.282;2022-09-28T14:56:19;13.80;99.90
27667;DHT22;15074;50.940;5.282;2022-09-28T14:58:52;13.90;99.90
27667;DHT22;15074;50.940;5.282;2022-09-28T15:01:22;14.10;99.90
27667;DHT22;15074;50.940;5.282;2022-09-28T15:03:55;13.90;99.90
27667;DHT22;15074;50.940;5.282;2022-09-28T15:06:22;13.90;99.90
27667;DHT22;15074;50.940;5.282;2022-09-28T15:08:48;14.10;99.90
27667;DHT22;15074;50.940;5.282;2022-09-28T15:11:17;14.30;99.90
27667;DHT22;15074;50.940;5.282;2022-09-28T15:13:44;14.20;99.90
27667;DHT22;15074;50.940;5.282;2022-09-28T15:16:12;14.30;99.90
27667;DHT22;15074;50.940;5.282;2022-09-28T15:21:14;14.50;99.90
27667;DHT22;15074;50.940;5.282;2022-09-28T15:23:42;14.50;99.90
27667;DHT22;15074;50.940;5.282;2022-09-28T15:26:25;14.10;99.90
27667;DHT22;15074;50.940;5.282;2022-09-28T15:28:53;14.40;99.90
27667;DHT22;15074;50.940;5.282;2022-09-28T15:31:21;14.40;99.90
27667;DHT22;15074;50.940;5.282;2022-09-28T15:33:48;14.60;99.90
27667;DHT22;15074;50.940;5.282;2022-09-28T15:36:42;15.00;99.90
27667;DHT22;15074;50.940;5.282;2022-09-28T15:39:30;15.00;99.90
27667;DHT22;15074;50.940;5.282;2022-09-28T15:41:56;15.30;99.90
27667;DHT22;15074;50.940;5.282;2022-09-28T15:44:31;15.40;99.90
27667;DHT22;15074;50.940;5.282;2022-09-28T15:47:26;15.10;99.90
27667;DHT22;15074;50.940;5.282;2022-09-28T15:49:55;15.30;99.90
27667;DHT22;15074;50.940;5.282;2022-09-28T15:52:36;15.10;99.90
27667;DHT22;15074;50.940;5.282;2022-09-28T15:55:20;14.80;99.90
27667;DHT22;15074;50.940;5.282;2022-09-28T15:57:46;14.90;99.90
27667;DHT22;15074;50.940;5.282;2022-09-28T16:00:25;14.90;99.90
27667;DHT22;15074;50.940;5.282;2022-09-28T16:03:03;14.70;99.90
27667;DHT22;15074;50.940;5.282;2022-09-28T16:08:22;14.40;99.90
27667;DHT22;15074;50.940;5.282;2022-09-28T16:11:22;14.20;99.90
27667;DHT22;15074;50.940;5.282;2022-09-28T16:13:54;14.20;99.90
27667;DHT22;15074;50.940;5.282;2022-09-28T16:16:36;13.90;99.90
27667;DHT22;15074;50.940;5.282;2022-09-28T16:19:03;13.60;99.90
27667;DHT22;15074;50.940;5.282;2022-09-28T16:24:03;13.40;99.90
27667;DHT22;15074;50.940;5.282;2022-09-28T16:26:33;13.40;99.90
27667;DHT22;15074;50.940;5.282;2022-09-28T16:28:59;13.30;99.90
27667;DHT22;15074;50.940;5.282;2022-09-28T16:31:31;13.10;99.90
27667;DHT22;15074;50.940;5.282;2022-09-28T16:36:41;13.00;99.90
27667;DHT22;15074;50.940;5.282;2022-09-28T16:39:10;12.80;99.90
27667;DHT22;15074;50.940;5.282;2022-09-28T16:41:37;12.80;99.90
27667;DHT22;15074;50.940;5.282;2022-09-28T16:44:12;12.70;99.90
27667;DHT22;15074;50.940;5.282;2022-09-28T16:46:38;12.70;99.90
27667;DHT22;15074;50.940;5.282;2022-09-28T16:49:05;12.80;99.90
27667;DHT22;15074;50.940;5.282;2022-09-28T16:51:31;12.90;99.90
27667;DHT22;15074;50.940;5.282;2022-09-28T16:54:18;13.00;99.90
27667;DHT22;15074;50.940;5.282;2022-09-28T16:57:04;12.80;99.90
27667;DHT22;15074;50.940;5.282;2022-09-28T16:59:31;12.80;99.90
27667;DHT22;15074;50.940;5.282;2022-09-28T17:01:58;12.80;99.90
27667;DHT22;15074;50.940;5.282;2022-09-28T17:04:26;12.70;99.90
27667;DHT22;15074;50.940;5.282;2022-09-28T17:06:53;12.80;99.90
27667;DHT22;15074;50.940;5.282;2022-09-28T17:09:21;12.80;99.90
27667;DHT22;15074;50.940;5.282;2022-09-28T17:11:47;12.60;99.90
27667;DHT22;15074;50.940;5.282;2022-09-28T17:14:13;12.40;99.90
27667;DHT22;15074;50.940;5.282;2022-09-28T17:16:39;12.40;99.90
27667;DHT22;15074;50.940;5.282;2022-09-28T17:19:17;12.30;99.90
27667;DHT22;15074;50.940;5.282;2022-09-28T17:21:44;12.20;99.90
27667;DHT22;15074;50.940;5.282;2022-09-28T17:24:09;12.10;99.90
27667;DHT22;15074;50.940;5.282;2022-09-28T17:26:35;12.10;99.90
27667;DHT22;15074;50.940;5.282;2022-09-28T17:29:01;12.20;99.90
27667;DHT22;15074;50.940;5.282;2022-09-28T17:31:30;12.20;99.90
27667;DHT22;15074;50.940;5.282;2022-09-28T17:33:55;12.30;99.90
27667;DHT22;15074;50.940;5.282;2022-09-28T17:36:21;12.30;99.90
27667;DHT22;15074;50.940;5.282;2022-09-28T17:38:47;12.20;99.90
27667;DHT22;15074;50.940;5.282;2022-09-28T17:41:18;12.10;99.90
27667;DHT22;15074;50.940;5.282;2022-09-28T17:43:44;12.10;99.90
27667;DHT22;15074;50.940;5.282;2022-09-28T17:48:57;11.90;99.90
27667;DHT22;15074;50.940;5.282;2022-09-28T17:51:31;11.80;99.90
27667;DHT22;15074;50.940;5.282;2022-09-28T17:53:58;11.70;99.90
27667;DHT22;15074;50.940;5.282;2022-09-28T17:56:26;11.60;99.90
27667;DHT22;15074;50.940;5.282;2022-09-28T17:58:52;11.50;99.90
27667;DHT22;15074;50.940;5.282;2022-09-28T18:01:18;11.60;99.90
27667;DHT22;15074;50.940;5.282;2022-09-28T18:03:44;11.60;99.90
27667;DHT22;15074;50.940;5.282;2022-09-28T18:06:13;11.60;99.90
27667;DHT22;15074;50.940;5.282;2022-09-28T18:08:41;11.60;99.90
27667;DHT22;15074;50.940;5.282;2022-09-28T18:11:09;11.40;99.90
27667;DHT22;15074;50.940;5.282;2022-09-28T18:13:34;11.30;99.90
27667;DHT22;15074;50.940;5.282;2022-09-28T18:16:01;11.30;99.90
27667;DHT22;15074;50.940;5.282;2022-09-28T18:18:27;11.40;99.90
27667;DHT22;15074;50.940;5.282;2022-09-28T18:20:53;11.40;99.90
27667;DHT22;15074;50.940;5.282;2022-09-28T18:23:18;11.30;99.90
27667;DHT22;15074;50.940;5.282;2022-09-28T18:25:44;11.20;99.90
27667;DHT22;15074;50.940;5.282;2022-09-28T18:28:11;11.10;99.90
27667;DHT22;15074;50.940;5.282;2022-09-28T18:30:39;11.10;99.90
27667;DHT22;15074;50.940;5.282;2022-09-28T18:33:06;11.00;99.90
27667;DHT22;15074;50.940;5.282;2022-09-28T18:35:31;10.90;99.90
27667;DHT22;15074;50.940;5.282;2022-09-28T18:37:57;10.80;99.90
27667;DHT22;15074;50.940;5.282;2022-09-28T18:40:23;10.70;99.90
27667;DHT22;15074;50.940;5.282;2022-09-28T18:42:50;10.60;99.90
27667;DHT22;15074;50.940;5.282;2022-09-28T18:45:15;10.60;99.90
27667;DHT22;15074;50.940;5.282;2022-09-28T18:47:43;10.50;99.90
27667;DHT22;15074;50.940;5.282;2022-09-28T18:50:09;10.30;99.90
27667;DHT22;15074;50.940;5.282;2022-09-28T18:52:40;10.20;99.90
27667;DHT22;15074;50.940;5.282;2022-09-28T18:55:07;10.00;99.90